• Join FlightAware (Why Join?)
  • Login
  • US Flag 
10:44PM EST


 

Airport Tracker/Info


-or-


 

Live Flight TrackerFlight Track Log ✈ SWA1287 ✈ 19-Oct-2013 ✈ KSNA - KDEN

Flight Track Log - Related Links

Times and Time Zones

All times are in EDT time to prevent confusion due to time zone crossing. See the SWA1287 flight status page for this flight to view local times or setup timezone preferences in your user account.

Time Position Orientation Groundspeed Altitude Reporting Facility
EDT Latitude Longitude Course Direction KTS MPH feet Rate Location/Type
10:57AM 33.6500 -117.8833 203° Southwest 148 170 1,100  Level Southern California TRACON
10:58AM 33.6167 -117.9000 203° Southwest 177 204 2,400 1,200 Climbing Southern California TRACON
10:59AM 33.5500 -117.8833 168° South 205 236 3,500 1,680 Climbing Southern California TRACON
11:01AM 33.5522 -117.8097 88° East 252 290 6,100 2,820 Climbing Los Angeles Center
11:02AM 33.5558 -117.7197 87° East 269 310 9,800 3,240 Climbing Los Angeles Center
11:03AM 33.5631 -117.5928 86° East 309 356 12,800 3,000 Climbing Los Angeles Center
11:04AM 33.5675 -117.4789 87° East 337 388 16,000 2,940 Climbing Los Angeles Center
11:05AM 33.5736 -117.3564 87° East 360 414 18,900 2,700 Climbing Los Angeles Center
11:06AM 33.5806 -117.2283 86° East 377 434 21,600 2,520 Climbing Los Angeles Center
11:07AM 33.5858 -117.0972 87° East 389 448 24,100 2,220 Climbing Los Angeles Center
11:08AM 33.5931 -116.9592 86° East 405 466 26,200 1,980 Climbing Los Angeles Center
11:09AM 33.6008 -116.8136 86° East 426 490 28,200 1,800 Climbing Los Angeles Center
11:10AM 33.6072 -116.6667 87° East 437 503 29,900 1,320 Climbing Los Angeles Center
11:11AM 33.6158 -116.4833 87° East 453 521 31,000 480 Climbing Los Angeles Center
11:12AM 33.6219 -116.3289 87° East 459 528 31,000 840 Level Los Angeles Center
11:13AM 33.6703 -116.1908 67° East 462 532 32,800 1,500 Climbing Los Angeles Center
11:14AM 33.7483 -116.0725 52° Northeast 453 521 34,100 1,260 Climbing Los Angeles Center
11:15AM 33.8278 -115.9514 52° Northeast 459 528 35,500 1,500 Climbing Los Angeles Center
11:16AM 33.9058 -115.8281 53° Northeast 463 533 37,200 1,380 Climbing Los Angeles Center
11:17AM 33.9839 -115.7081 52° Northeast 457 526 38,400 840 Climbing Los Angeles Center
11:18AM 34.0606 -115.5883 52° Northeast 452 520 39,000 240 Climbing Los Angeles Center
11:19AM 34.1547 -115.4408 52° Northeast 461 531 39,000  Level Los Angeles Center
11:20AM 34.2333 -115.3194 52° Northeast 459 528 39,000  Level Los Angeles Center
11:21AM 34.3114 -115.1989 52° Northeast 458 527 39,000  Level Los Angeles Center
11:22AM 34.3878 -115.0764 53° Northeast 457 526 39,000  Level Los Angeles Center
11:23AM 34.4644 -114.9531 53° Northeast 458 527 39,000  Level Los Angeles Center
11:24AM 34.5422 -114.8336 52° Northeast 453 521 39,000  Level Los Angeles Center
11:25AM 34.6039 -114.7339 53° Northeast 456 525 39,000  Level Los Angeles Center
11:26AM 34.7014 -114.5767 53° Northeast 463 533 39,000  Level Los Angeles Center
11:27AM 34.7764 -114.4522 54° Northeast 458 527 39,000  Level Los Angeles Center
11:28AM 34.8489 -114.2861 62° Northeast 463 533 39,000  Level Los Angeles Center
11:29AM 34.9092 -114.1483 62° Northeast 461 531 39,000  Level Los Angeles Center
11:30AM 34.9686 -114.0119 62° Northeast 457 526 39,000  Level Los Angeles Center
11:31AM 35.0328 -113.8686 61° Northeast 454 522 39,000  Level Los Angeles Center
11:32AM 35.0914 -113.7325 62° Northeast 454 522 39,000  Level Los Angeles Center
11:33AM 35.1503 -113.5958 62° Northeast 456 525 39,000  Level Los Angeles Center
11:34AM 35.2086 -113.4594 62° Northeast 456 525 39,000  Level Los Angeles Center
11:36AM 35.2681 -113.3228 62° Northeast 457 526 39,000  Level Los Angeles Center
11:37AM 35.3364 -113.1647 62° Northeast 458 527 39,000  Level Los Angeles Center
11:38AM 35.3972 -113.0250 62° Northeast 462 532 39,000  Level Los Angeles Center
11:39AM 35.4553 -112.8828 63° Northeast 467 537 39,000  Level Los Angeles Center
11:40AM 35.5142 -112.7425 63° Northeast 466 536 39,000  Level Los Angeles Center
11:41AM 35.5797 -112.5853 63° Northeast 464 534 39,000  Level Los Angeles Center
11:42AM 35.6383 -112.4442 63° Northeast 464 534 39,000  Level Los Angeles Center
11:43AM 35.6975 -112.3031 63° Northeast 466 536 39,000  Level Los Angeles Center
11:44AM 35.7567 -112.1622 63° Northeast 467 537 39,000  Level Los Angeles Center
11:45AM 35.8261 -111.9931 63° Northeast 464 534 39,000  Level Los Angeles Center
11:46AM 35.8958 -111.8233 63° Northeast 465 535 39,000  Level Los Angeles Center
11:47AM 35.9469 -111.6989 63° Northeast 463 533 39,000  Level Los Angeles Center
11:48AM 35.9922 -111.5892 63° Northeast 458 527 39,000  Level Denver Center
11:49AM 36.0497 -111.4478 63° Northeast 460 529 39,000  Level Denver Center
11:50AM 36.1058 -111.3075 64° Northeast 459 528 39,000  Level Denver Center
11:51AM 36.1669 -111.1731 61° Northeast 454 522 39,000  Level Denver Center
11:52AM 36.2342 -111.0381 58° Northeast 458 527 39,000  Level Denver Center
11:53AM 36.3111 -110.8783 59° Northeast 454 522 39,000  Level Denver Center
11:54AM 36.3744 -110.7439 60° Northeast 454 522 39,000  Level Denver Center
11:55AM 36.4392 -110.6083 59° Northeast 456 525 39,000  Level Denver Center
11:56AM 36.5044 -110.4711 59° Northeast 461 531 39,000  Level Denver Center
11:57AM 36.5697 -110.3350 59° Northeast 460 529 39,000  Level Denver Center
11:58AM 36.6339 -110.1981 60° Northeast 460 529 39,000  Level Denver Center
11:59AM 36.7039 -110.0461 60° Northeast 456 525 39,000  Level Denver Center
12:00PM 36.7761 -109.8931 59° Northeast 457 526 39,000  Level Denver Center
12:01PM 36.8358 -109.7639 60° Northeast 452 520 39,000  Level Denver Center
12:02PM 36.8964 -109.6328 60° Northeast 452 520 39,000  Level Denver Center
12:03PM 36.9661 -109.4786 60° Northeast 454 522 39,000  Level Denver Center
12:04PM 37.0269 -109.3472 60° Northeast 455 524 39,000  Level Denver Center
12:05PM 37.0975 -109.1933 60° Northeast 455 524 39,000  Level Denver Center
12:06PM 37.1569 -109.0628 60° Northeast 453 521 39,000  Level Denver Center
12:07PM 37.2258 -108.9097 60° Northeast 450 518 39,000  Level Denver Center
12:08PM 37.2847 -108.7786 61° Northeast 449 517 39,000  Level Denver Center
12:09PM 37.3539 -108.6247 60° Northeast 451 519 39,000  Level Denver Center
12:10PM 37.4128 -108.4928 61° Northeast 451 519 39,000  Level Denver Center
12:11PM 37.4817 -108.3392 60° Northeast 451 519 39,000  Level Denver Center
12:13PM 37.5414 -108.2053 61° Northeast 455 524 39,000  Level Denver Center
12:14PM 37.5997 -108.0711 61° Northeast 456 525 39,000  Level Denver Center
12:15PM 37.6678 -107.9156 61° Northeast 453 521 39,000  Level Denver Center
12:16PM 37.7269 -107.7828 61° Northeast 453 521 39,000  Level Denver Center
12:17PM 37.7944 -107.6269 61° Northeast 453 521 39,000  Level Denver Center
12:18PM 37.8519 -107.4944 61° Northeast 450 518 39,000  Level Denver Center
12:19PM 37.9317 -107.3542 54° Northeast 437 503 39,000  Level Denver Center
12:20PM 38.0064 -107.2403 50° Northeast 439 505 39,000 -540 Level Denver Center
12:21PM 38.0953 -107.1033 50° Northeast 446 513 38,000 -960 Descending Denver Center
12:22PM 38.1728 -106.9847 50° Northeast 439 505 37,100 -960 Descending Denver Center
12:23PM 38.2492 -106.8661 51° Northeast 435 501 36,100 -1,020 Descending Denver Center
12:24PM 38.3317 -106.7381 51° Northeast 425 489 35,000 -540 Descending Denver Center
12:25PM 38.3994 -106.6328 51° Northeast 429 494 35,000  Level Denver Center
12:26PM 38.4747 -106.5142 51° Northeast 431 496 35,000  Level Denver Center
12:27PM 38.5653 -106.3722 51° Northeast 431 496 35,000  Level Denver Center
12:28PM 38.6400 -106.2544 51° Northeast 428 493 35,000  Level Denver Center
12:29PM 38.7219 -106.1244 51° Northeast 428 493 35,000 -660 Level Denver Center
12:30PM 38.7967 -106.0064 51° Northeast 428 493 33,700 -2,040 Descending Denver Center
12:31PM 38.8711 -105.8875 51° Northeast 428 493 30,800 -2,700 Descending Denver Center
12:32PM 38.9464 -105.7664 51° Northeast 434 499 28,200 -2,460 Descending Denver Center
12:33PM 39.0250 -105.6381 52° Northeast 421 484 25,700 -2,220 Descending Denver Center
12:34PM 39.0917 -105.5311 51° Northeast 404 465 23,600 -2,280 Descending Denver Center
12:35PM 39.1703 -105.4136 49° Northeast 395 455 21,100 -1,860 Descending Denver Center
12:36PM 39.2411 -105.3244 44° Northeast 358 412 19,800 -1,260 Descending Denver Center
12:37PM 39.3169 -105.2483 38° Northeast 322 371 18,500 -1,380 Descending Denver Center
12:38PM 39.3828 -105.1800 39° Northeast 303 349 17,000 -1,620 Descending Denver Center
12:39PM 39.4556 -105.1125 36° Northeast 298 343 15,200 -1,020 Descending Denver Center
12:40PM 39.5200 -105.0469 38° Northeast 293 337 15,000 -120 Descending Denver Center
12:41PM 39.5869 -104.9825 37° Northeast 299 344 15,000  Level Denver Center
12:43PM 39.6572 -104.9125 37° Northeast 297 342 15,000 -720 Level Denver Center
12:44PM 39.7225 -104.8500 36° Northeast 293 337 13,600 -1,440 Descending Denver Center
12:45PM 39.8044 -104.8408 North 270 311 12,100 -1,140 Descending Denver Center
12:46PM 39.8783 -104.8400 360° North 262 302 11,300 -780 Descending Denver Center
12:47PM 39.9469 -104.8383 North 245 282 10,500 -1,260 Descending Denver Center
12:48PM 40.0156 -104.8397 359° North 229 264 8,700 -1,260 Descending Denver Center
12:49PM 40.0425 -104.7742 62° Northeast 236 272 8,000 -840 Descending Denver Center
12:50PM 40.0061 -104.7078 126° Southeast 208 239 7,000 -600 Descending Denver Center
12:51PM 39.9672 -104.6864 157° South 157 181 6,800 -540 Descending Denver Center
12:52PM 39.9250 -104.6861 180° South 151 174 5,900 -780 Descending Denver Center
12:53PM 39.8833 -104.6869 181° South 149 171 5,200 -720 Descending Denver Center
12:55PM 39.8617 -104.6732 North  Level Estimated
01:02PM 39.8617 -104.6732 North  Level Estimated
01:03PM 39.8617 -104.6732 North  Level Estimated
01:04PM 39.8617 -104.6732 North  Level Estimated
01:05PM 39.8617 -104.6732 North  Level Estimated
01:06PM 39.8617 -104.6732 North  Level Estimated